sensor_id;sensor_type;location;lat;lon;timestamp;P1;durP1;ratioP1;P2;durP2;ratioP2
58982;SDS011;44771;49.982;8.560;2022-10-17T01:14:15;17.08;;;11.40;;
58982;SDS011;44771;49.982;8.560;2022-10-17T01:19:57;22.02;;;11.07;;
58982;SDS011;44771;49.982;8.560;2022-10-17T01:37:44;12.35;;;10.25;;
58982;SDS011;44771;49.982;8.560;2022-10-17T01:43:14;12.25;;;10.68;;
58982;SDS011;44771;49.982;8.560;2022-10-17T02:00:08;18.45;;;10.70;;
58982;SDS011;44771;49.982;8.560;2022-10-17T02:11:22;12.30;;;9.90;;
58982;SDS011;44771;49.982;8.560;2022-10-17T02:17:13;18.10;;;10.50;;
58982;SDS011;44771;49.982;8.560;2022-10-17T02:28:32;16.70;;;10.80;;
58982;SDS011;44771;49.982;8.560;2022-10-17T02:33:51;15.73;;;10.20;;
58982;SDS011;44771;49.982;8.560;2022-10-17T02:39:08;15.07;;;11.32;;
58982;SDS011;44771;49.982;8.560;2022-10-17T02:44:22;13.57;;;10.45;;
58982;SDS011;44771;49.982;8.560;2022-10-17T02:49:37;13.20;;;10.35;;
58982;SDS011;44771;49.982;8.560;2022-10-17T02:54:50;11.05;;;9.57;;
58982;SDS011;44771;49.982;8.560;2022-10-17T03:05:24;11.52;;;10.20;;
58982;SDS011;44771;49.982;8.560;2022-10-17T03:15:56;16.15;;;10.30;;
58982;SDS011;44771;49.982;8.560;2022-10-17T03:21:15;13.32;;;10.05;;
58982;SDS011;44771;49.982;8.560;2022-10-17T03:26:31;17.05;;;10.20;;
58982;SDS011;44771;49.982;8.560;2022-10-17T03:31:55;11.18;;;10.20;;
58982;SDS011;44771;49.982;8.560;2022-10-17T03:37:05;11.50;;;10.35;;
58982;SDS011;44771;49.982;8.560;2022-10-17T03:42:15;14.07;;;9.52;;
58982;SDS011;44771;49.982;8.560;2022-10-17T10:32:38;9.93;;;8.93;;
58982;SDS011;44771;49.982;8.560;2022-10-17T10:37:40;9.45;;;8.43;;
58982;SDS011;44771;49.982;8.560;2022-10-17T10:48:18;8.70;;;7.80;;
58982;SDS011;44771;49.982;8.560;2022-10-17T10:53:33;11.20;;;8.63;;
58982;SDS011;44771;49.982;8.560;2022-10-17T11:10:24;10.40;;;8.23;;
58982;SDS011;44771;49.982;8.560;2022-10-17T11:16:11;9.23;;;8.32;;
58982;SDS011;44771;49.982;8.560;2022-10-17T11:21:40;12.73;;;8.80;;
58982;SDS011;44771;49.982;8.560;2022-10-17T11:27:07;10.18;;;7.10;;
58982;SDS011;44771;49.982;8.560;2022-10-17T11:37:30;9.80;;;7.47;;
58982;SDS011;44771;49.982;8.560;2022-10-17T11:43:21;9.10;;;8.20;;
58982;SDS011;44771;49.982;8.560;2022-10-17T11:49:15;12.80;;;8.68;;
58982;SDS011;44771;49.982;8.560;2022-10-17T11:55:15;8.73;;;7.47;;
58982;SDS011;44771;49.982;8.560;2022-10-17T12:00:46;10.65;;;8.00;;
58982;SDS011;44771;49.982;8.560;2022-10-17T12:11:15;9.20;;;8.00;;
58982;SDS011;44771;49.982;8.560;2022-10-17T12:22:05;10.32;;;8.07;;
58982;SDS011;44771;49.982;8.560;2022-10-17T12:33:02;9.07;;;7.85;;
58982;SDS011;44771;49.982;8.560;2022-10-17T12:55:10;8.48;;;7.55;;
58982;SDS011;44771;49.982;8.560;2022-10-17T13:00:16;12.05;;;7.10;;
58982;SDS011;44771;49.982;8.560;2022-10-17T13:10:39;8.68;;;6.85;;
58982;SDS011;44771;49.982;8.560;2022-10-17T13:15:52;11.23;;;7.40;;
58982;SDS011;44771;49.982;8.560;2022-10-17T13:20:55;9.38;;;7.43;;
58982;SDS011;44771;49.982;8.560;2022-10-17T13:26:11;12.15;;;8.25;;
58982;SDS011;44771;49.982;8.560;2022-10-17T13:36:32;9.25;;;7.53;;
58982;SDS011;44771;49.982;8.560;2022-10-17T13:41:39;8.05;;;7.25;;
58982;SDS011;44771;49.982;8.560;2022-10-17T13:46:59;7.65;;;7.05;;
58982;SDS011;44771;49.982;8.560;2022-10-17T13:52:21;9.02;;;7.15;;
58982;SDS011;44771;49.982;8.560;2022-10-17T13:57:27;8.77;;;7.55;;
58982;SDS011;44771;49.982;8.560;2022-10-17T14:02:32;10.73;;;7.97;;
58982;SDS011;44771;49.982;8.560;2022-10-17T14:07:39;8.88;;;7.07;;
58982;SDS011;44771;49.982;8.560;2022-10-17T14:13:18;8.45;;;7.57;;
58982;SDS011;44771;49.982;8.560;2022-10-17T14:18:35;9.10;;;7.60;;
58982;SDS011;44771;49.982;8.560;2022-10-17T14:24:11;9.23;;;7.25;;
58982;SDS011;44771;49.982;8.560;2022-10-17T15:06:53;8.75;;;7.55;;
58982;SDS011;44771;49.982;8.560;2022-10-17T15:11:58;14.87;;;8.38;;
58982;SDS011;44771;49.982;8.560;2022-10-17T15:22:08;7.85;;;6.87;;
58982;SDS011;44771;49.982;8.560;2022-10-17T15:27:12;8.75;;;7.65;;
58982;SDS011;44771;49.982;8.560;2022-10-17T15:32:16;12.40;;;8.10;;
58982;SDS011;44771;49.982;8.560;2022-10-17T15:37:20;8.38;;;7.32;;
58982;SDS011;44771;49.982;8.560;2022-10-17T15:42:25;9.00;;;8.10;;
58982;SDS011;44771;49.982;8.560;2022-10-17T15:47:29;10.48;;;7.62;;
58982;SDS011;44771;49.982;8.560;2022-10-17T15:52:34;8.88;;;7.82;;
58982;SDS011;44771;49.982;8.560;2022-10-17T15:57:37;9.18;;;7.28;;
58982;SDS011;44771;49.982;8.560;2022-10-17T16:03:01;9.25;;;8.23;;
58982;SDS011;44771;49.982;8.560;2022-10-17T16:08:04;8.95;;;8.13;;
58982;SDS011;44771;49.982;8.560;2022-10-17T16:13:07;10.00;;;8.30;;
58982;SDS011;44771;49.982;8.560;2022-10-17T16:18:13;10.38;;;8.07;;
58982;SDS011;44771;49.982;8.560;2022-10-17T16:23:16;9.57;;;8.57;;
58982;SDS011;44771;49.982;8.560;2022-10-17T16:28:18;11.68;;;8.25;;
58982;SDS011;44771;49.982;8.560;2022-10-17T22:30:36;16.27;;;13.45;;
58982;SDS011;44771;49.982;8.560;2022-10-17T22:35:38;16.25;;;13.62;;
58982;SDS011;44771;49.982;8.560;2022-10-17T22:40:42;22.35;;;14.68;;
58982;SDS011;44771;49.982;8.560;2022-10-17T22:45:51;16.00;;;13.90;;
58982;SDS011;44771;49.982;8.560;2022-10-17T22:50:56;18.15;;;13.48;;
58982;SDS011;44771;49.982;8.560;2022-10-17T22:56:12;15.50;;;11.90;;
58982;SDS011;44771;49.982;8.560;2022-10-17T23:01:22;19.12;;;13.25;;
58982;SDS011;44771;49.982;8.560;2022-10-17T23:06:28;17.80;;;13.52;;
58982;SDS011;44771;49.982;8.560;2022-10-17T23:11:30;17.40;;;13.15;;
58982;SDS011;44771;49.982;8.560;2022-10-17T23:16:34;19.77;;;12.15;;
58982;SDS011;44771;49.982;8.560;2022-10-17T23:21:36;19.10;;;13.65;;
58982;SDS011;44771;49.982;8.560;2022-10-17T23:26:39;20.27;;;14.13;;
58982;SDS011;44771;49.982;8.560;2022-10-17T23:31:43;19.27;;;14.73;;
58982;SDS011;44771;49.982;8.560;2022-10-17T23:36:45;17.62;;;13.20;;
58982;SDS011;44771;49.982;8.560;2022-10-17T23:41:48;19.70;;;13.82;;
58982;SDS011;44771;49.982;8.560;2022-10-17T23:46:52;18.90;;;12.40;;
58982;SDS011;44771;49.982;8.560;2022-10-17T23:51:54;19.90;;;13.30;;
58982;SDS011;44771;49.982;8.560;2022-10-17T23:56:59;16.17;;;12.55;;
